createdAt,value
2017-06-19T00:00:58.325Z,16.50
2017-06-19T00:03:31.036Z,16.50
2017-06-19T00:06:03.951Z,16.40
2017-06-19T00:08:36.855Z,16.30
2017-06-19T00:11:09.760Z,16.30
2017-06-19T00:13:42.667Z,16.30
2017-06-19T00:16:15.435Z,16.20
2017-06-19T00:18:48.300Z,16.20
2017-06-19T00:21:27.365Z,16.10
2017-06-19T00:24:00.987Z,16.00
2017-06-19T00:26:33.942Z,16.00
2017-06-19T00:29:08.951Z,16.00
2017-06-19T00:31:41.732Z,15.90
2017-06-19T00:34:14.675Z,15.90
2017-06-19T00:36:47.514Z,15.80
2017-06-19T00:39:20.811Z,15.70
2017-06-19T00:41:53.345Z,15.70
2017-06-19T00:44:26.407Z,15.70
2017-06-19T00:46:59.407Z,15.70
2017-06-19T00:49:32.631Z,15.60
2017-06-19T00:52:05.527Z,15.60
2017-06-19T00:54:38.371Z,15.60
2017-06-19T00:57:11.315Z,15.60
2017-06-19T00:59:44.353Z,15.60
2017-06-19T01:02:17.209Z,15.50
2017-06-19T01:04:50.239Z,15.50
2017-06-19T01:07:23.015Z,15.50
2017-06-19T01:09:55.939Z,15.50
2017-06-19T01:12:28.863Z,15.40
2017-06-19T01:15:01.714Z,15.40
2017-06-19T01:17:34.758Z,15.40
2017-06-19T01:20:07.479Z,15.40
2017-06-19T01:22:40.272Z,15.40
2017-06-19T01:25:13.190Z,15.40
2017-06-19T01:27:45.395Z,15.40
2017-06-19T01:30:18.367Z,15.40
2017-06-19T01:32:51.073Z,15.40
2017-06-19T01:35:23.924Z,15.40
2017-06-19T01:37:56.807Z,15.40
2017-06-19T01:40:29.648Z,15.40
2017-06-19T01:43:02.603Z,15.40
2017-06-19T01:45:35.452Z,15.40
2017-06-19T01:48:08.316Z,15.30
2017-06-19T01:50:40.643Z,15.30
2017-06-19T01:53:13.619Z,15.30
2017-06-19T01:55:46.336Z,15.30
2017-06-19T01:58:19.375Z,15.20
2017-06-19T02:00:52.376Z,15.20
2017-06-19T02:03:25.071Z,15.20
2017-06-19T02:05:57.958Z,15.20
2017-06-19T02:08:30.644Z,15.20
2017-06-19T02:11:03.808Z,15.10
2017-06-19T02:13:36.707Z,15.10
2017-06-19T02:16:09.560Z,15.10
2017-06-19T02:18:42.222Z,15.00
2017-06-19T02:21:14.887Z,15.00
2017-06-19T02:23:47.799Z,15.00
2017-06-19T02:26:20.667Z,15.10
2017-06-19T02:28:53.708Z,15.10
2017-06-19T02:31:26.577Z,15.00
2017-06-19T02:33:59.347Z,15.10
2017-06-19T02:36:32.208Z,15.10
2017-06-19T02:39:05.268Z,15.10
2017-06-19T02:41:38.143Z,15.10
2017-06-19T02:44:10.927Z,15.10
2017-06-19T02:46:43.872Z,15.10
2017-06-19T02:49:16.771Z,15.00
2017-06-19T02:51:49.823Z,15.00
2017-06-19T02:54:22.947Z,15.10
2017-06-19T02:56:55.703Z,15.00
2017-06-19T02:59:28.435Z,15.00
2017-06-19T03:02:01.535Z,15.00
2017-06-19T03:04:34.443Z,15.00
2017-06-19T03:07:07.639Z,15.00
2017-06-19T03:09:40.355Z,15.00
2017-06-19T03:12:12.819Z,15.00
2017-06-19T03:14:45.579Z,15.00
2017-06-19T03:17:18.308Z,14.90
2017-06-19T03:19:51.383Z,14.90
2017-06-19T03:22:23.635Z,14.90
2017-06-19T03:24:56.303Z,14.90
2017-06-19T03:27:29.223Z,14.90
2017-06-19T03:30:02.128Z,14.90
2017-06-19T03:32:34.935Z,14.90
2017-06-19T03:35:07.764Z,14.90
2017-06-19T03:37:40.591Z,14.90
2017-06-19T03:40:13.539Z,14.90
2017-06-19T03:42:46.482Z,14.90
2017-06-19T03:45:19.379Z,14.80
2017-06-19T03:47:52.223Z,14.90
2017-06-19T03:50:25.283Z,14.90
2017-06-19T03:52:58.343Z,14.90
2017-06-19T03:55:31.337Z,14.90
2017-06-19T03:58:04.307Z,14.90
2017-06-19T04:00:36.989Z,14.80
2017-06-19T04:03:09.831Z,14.80
2017-06-19T04:05:42.751Z,14.90
2017-06-19T04:08:15.435Z,14.90
2017-06-19T04:10:45.427Z,14.90
2017-06-19T04:13:18.495Z,14.90
2017-06-19T04:15:48.531Z,15.00
2017-06-19T04:18:21.141Z,15.00
2017-06-19T04:20:54.151Z,15.00
2017-06-19T04:23:27.132Z,15.00
2017-06-19T04:25:59.748Z,15.00
2017-06-19T04:28:32.768Z,15.10
2017-06-19T04:31:05.704Z,15.10
2017-06-19T04:33:38.899Z,15.20
2017-06-19T04:36:11.875Z,15.20
2017-06-19T04:38:44.997Z,15.30
2017-06-19T04:41:17.763Z,15.30
2017-06-19T04:43:51.396Z,15.30
2017-06-19T04:46:24.338Z,15.40
2017-06-19T04:48:57.013Z,15.40
2017-06-19T04:51:30.003Z,15.50
2017-06-19T04:54:02.939Z,15.60
2017-06-19T04:56:35.943Z,15.60
2017-06-19T04:59:08.872Z,15.70
2017-06-19T05:01:42.804Z,15.80
2017-06-19T05:04:15.563Z,15.80
2017-06-19T05:06:48.557Z,15.90
2017-06-19T05:09:21.531Z,16.00
2017-06-19T05:11:54.702Z,16.10
2017-06-19T05:14:27.688Z,16.20
2017-06-19T05:17:00.618Z,16.30
2017-06-19T05:19:33.267Z,16.40
2017-06-19T05:22:08.599Z,16.50
2017-06-19T05:24:41.715Z,16.50
2017-06-19T05:27:14.857Z,16.60
2017-06-19T05:29:47.727Z,16.70
2017-06-19T05:32:20.506Z,16.80
2017-06-19T05:34:53.660Z,16.90
2017-06-19T05:37:26.323Z,17.00
2017-06-19T05:39:59.192Z,17.10
2017-06-19T05:42:31.960Z,17.30
2017-06-19T05:45:04.744Z,17.40
2017-06-19T05:47:37.739Z,17.40
2017-06-19T05:50:10.417Z,17.60
2017-06-19T05:52:43.481Z,17.80
2017-06-19T05:55:16.499Z,18.00
2017-06-19T05:57:49.521Z,18.40
2017-06-19T06:00:22.501Z,18.50
2017-06-19T06:02:55.659Z,18.70
2017-06-19T06:05:28.784Z,19.00
2017-06-19T06:08:01.899Z,19.20
2017-06-19T06:10:34.726Z,19.40
2017-06-19T06:13:07.547Z,19.60
2017-06-19T06:15:40.487Z,19.70
2017-06-19T06:18:13.353Z,19.80
2017-06-19T06:20:46.175Z,19.90
2017-06-19T06:23:19.188Z,20.00
2017-06-19T06:25:52.215Z,20.20
2017-06-19T06:28:25.355Z,20.40
2017-06-19T06:30:58.536Z,20.50
2017-06-19T06:33:31.419Z,20.50
2017-06-19T06:36:04.496Z,20.60
2017-06-19T06:38:37.483Z,20.80
2017-06-19T06:41:10.635Z,21.00
2017-06-19T06:43:43.694Z,21.10
2017-06-19T06:46:16.479Z,21.20
2017-06-19T06:48:49.263Z,21.20
2017-06-19T06:51:22.309Z,21.30
2017-06-19T06:53:55.063Z,21.50
2017-06-19T06:56:25.047Z,21.60
2017-06-19T06:58:57.831Z,21.70
2017-06-19T07:01:31.287Z,21.90
2017-06-19T07:04:03.592Z,22.00
2017-06-19T07:06:36.406Z,22.10
2017-06-19T07:09:09.279Z,22.30
2017-06-19T07:11:42.091Z,22.40
2017-06-19T07:14:12.031Z,22.50
2017-06-19T07:16:44.874Z,22.60
2017-06-19T07:19:17.823Z,22.80
2017-06-19T07:21:50.768Z,22.80
2017-06-19T07:24:23.738Z,22.90
2017-06-19T07:26:57.280Z,23.00
2017-06-19T07:29:30.126Z,23.20
2017-06-19T07:32:03.082Z,23.30
2017-06-19T07:34:36.206Z,23.40
2017-06-19T07:37:09.344Z,23.50
2017-06-19T07:39:42.272Z,23.60
2017-06-19T07:42:12.092Z,23.70
2017-06-19T07:44:44.874Z,23.80
2017-06-19T07:47:17.730Z,23.90
2017-06-19T07:49:50.407Z,24.00
2017-06-19T07:52:23.163Z,24.10
2017-06-19T07:54:55.900Z,24.20
2017-06-19T07:57:28.580Z,24.30
2017-06-19T08:00:00.763Z,24.40
2017-06-19T08:02:33.654Z,24.50
2017-06-19T08:05:06.646Z,24.60
2017-06-19T08:07:39.500Z,24.70
2017-06-19T08:10:12.248Z,24.80
2017-06-19T08:12:45.031Z,24.90
2017-06-19T08:15:17.748Z,25.00
2017-06-19T08:17:50.721Z,25.10
2017-06-19T08:20:23.491Z,25.10
2017-06-19T08:22:56.689Z,25.20
2017-06-19T08:25:29.815Z,25.30
2017-06-19T08:28:02.534Z,25.40
2017-06-19T08:30:39.485Z,25.50
2017-06-19T08:33:12.171Z,25.50
2017-06-19T08:35:45.179Z,25.60
2017-06-19T08:38:17.675Z,25.70
2017-06-19T08:40:50.331Z,25.80
2017-06-19T08:43:23.347Z,25.90
2017-06-19T08:45:56.091Z,25.90
2017-06-19T08:48:28.775Z,26.00
2017-06-19T08:51:01.579Z,26.10
2017-06-19T08:53:34.432Z,26.10
2017-06-19T08:56:07.024Z,26.20
2017-06-19T08:58:40.218Z,26.20
2017-06-19T09:01:13.052Z,26.30
2017-06-19T09:03:45.786Z,26.40
2017-06-19T09:06:18.607Z,26.60
2017-06-19T09:08:51.615Z,26.70
2017-06-19T09:11:24.720Z,26.80
2017-06-19T09:13:57.619Z,27.00
2017-06-19T09:16:30.323Z,27.30
2017-06-19T09:19:02.955Z,27.80
2017-06-19T09:21:35.851Z,28.40
2017-06-19T09:24:08.796Z,29.70
2017-06-19T09:26:41.579Z,31.70
2017-06-19T09:29:14.627Z,34.20
2017-06-19T09:31:47.775Z,36.40
2017-06-19T09:34:20.621Z,38.40
2017-06-19T09:36:53.519Z,40.30
2017-06-19T09:39:26.475Z,41.80
2017-06-19T09:41:59.195Z,43.10
2017-06-19T09:44:32.115Z,44.10
2017-06-19T09:47:05.243Z,44.80
2017-06-19T09:49:38.195Z,45.50
2017-06-19T09:52:10.831Z,46.10
2017-06-19T09:54:43.595Z,46.10
2017-06-19T09:57:16.587Z,46.30
2017-06-19T09:59:49.672Z,46.80
2017-06-19T10:02:22.435Z,47.00
2017-06-19T10:04:55.370Z,46.90
2017-06-19T10:07:28.424Z,47.00
2017-06-19T10:10:01.307Z,47.00
2017-06-19T10:12:34.087Z,46.80
2017-06-19T10:15:06.964Z,46.50
2017-06-19T10:17:40.103Z,45.60
2017-06-19T10:20:13.064Z,44.40
2017-06-19T10:22:46.131Z,42.80
2017-06-19T10:25:16.250Z,39.50
2017-06-19T10:27:49.399Z,39.40
2017-06-19T10:30:22.347Z,37.90
2017-06-19T10:32:55.431Z,36.50
2017-06-19T10:35:28.243Z,35.20
2017-06-19T10:38:01.107Z,33.90
2017-06-19T10:40:34.083Z,33.00
2017-06-19T10:43:07.023Z,32.30
2017-06-19T10:45:39.931Z,31.60
2017-06-19T10:48:12.671Z,31.10
2017-06-19T10:50:45.405Z,30.70
2017-06-19T10:53:12.447Z,30.10
2017-06-19T10:55:44.995Z,30.00
2017-06-19T10:58:17.815Z,29.80
2017-06-19T11:00:50.759Z,29.60
2017-06-19T11:03:23.599Z,29.60
2017-06-19T11:05:56.219Z,29.50
2017-06-19T11:08:29.067Z,29.30
2017-06-19T11:11:02.035Z,29.20
2017-06-19T11:13:34.687Z,29.10
2017-06-19T11:16:07.555Z,29.00
2017-06-19T11:18:40.551Z,29.00
2017-06-19T11:21:13.667Z,28.90
2017-06-19T11:23:46.781Z,29.00
2017-06-19T11:26:19.677Z,29.00
2017-06-19T11:28:52.466Z,29.00
2017-06-19T11:31:25.439Z,29.00
2017-06-19T11:33:58.429Z,29.10
2017-06-19T11:36:31.275Z,29.10
2017-06-19T11:39:04.311Z,29.10
2017-06-19T11:41:37.119Z,29.10
2017-06-19T11:44:10.032Z,29.10
2017-06-19T11:46:43.035Z,29.20
2017-06-19T11:49:16.027Z,29.30
2017-06-19T11:51:48.752Z,29.40
2017-06-19T11:54:21.539Z,29.40
2017-06-19T11:56:54.171Z,29.40
2017-06-19T11:59:26.989Z,29.50
2017-06-19T12:01:59.843Z,29.50
2017-06-19T12:04:32.471Z,29.50
2017-06-19T12:07:05.752Z,29.60
2017-06-19T12:09:38.754Z,29.60
2017-06-19T12:12:11.560Z,29.70
2017-06-19T12:14:44.443Z,29.80
2017-06-19T12:17:18.811Z,29.90
2017-06-19T12:19:51.635Z,30.00
2017-06-19T12:22:24.778Z,30.10
2017-06-19T12:24:57.457Z,30.20
2017-06-19T12:27:30.215Z,30.60
2017-06-19T12:30:03.038Z,31.50
2017-06-19T12:32:35.988Z,33.10
2017-06-19T12:35:08.779Z,34.90
2017-06-19T12:37:41.763Z,36.90
2017-06-19T12:40:14.678Z,38.90
2017-06-19T12:42:44.708Z,40.90
2017-06-19T12:45:17.443Z,43.10
2017-06-19T12:47:50.627Z,45.00
2017-06-19T12:50:23.490Z,47.00
2017-06-19T12:52:53.528Z,48.40
2017-06-19T12:55:25.849Z,50.00
2017-06-19T12:57:58.791Z,50.90
2017-06-19T13:00:31.515Z,51.30
2017-06-19T13:03:04.226Z,51.80
2017-06-19T13:05:37.379Z,52.50
2017-06-19T13:08:10.121Z,53.30
2017-06-19T13:10:42.839Z,53.30
2017-06-19T13:13:15.747Z,52.70
2017-06-19T13:15:48.706Z,53.20
2017-06-19T13:18:21.615Z,53.40
2017-06-19T13:20:54.423Z,53.50
2017-06-19T13:23:27.354Z,54.00
2017-06-19T13:26:00.140Z,54.40
2017-06-19T13:28:32.996Z,54.60
2017-06-19T13:31:05.796Z,54.60
2017-06-19T13:33:39.148Z,54.80
2017-06-19T13:36:12.827Z,54.90
2017-06-19T13:38:45.550Z,54.70
2017-06-19T13:41:18.144Z,54.60
2017-06-19T13:43:50.975Z,54.60
2017-06-19T13:46:23.801Z,54.60
2017-06-19T13:48:56.652Z,54.20
2017-06-19T13:51:29.460Z,54.00
2017-06-19T13:54:02.231Z,54.20
2017-06-19T13:56:35.047Z,54.00
2017-06-19T13:59:07.840Z,54.10
2017-06-19T14:01:40.598Z,54.10
2017-06-19T14:04:13.375Z,53.70
2017-06-19T14:06:46.323Z,53.20
2017-06-19T14:09:19.145Z,53.20
2017-06-19T14:11:52.075Z,53.50
2017-06-19T14:14:24.775Z,53.50
2017-06-19T14:16:57.692Z,53.80
2017-06-19T14:19:30.469Z,53.70
2017-06-19T14:22:03.585Z,53.90
2017-06-19T14:24:36.771Z,53.90
2017-06-19T14:27:09.759Z,53.70
2017-06-19T14:29:42.500Z,53.50
2017-06-19T14:32:15.319Z,53.40
2017-06-19T14:34:48.447Z,53.30
2017-06-19T14:37:21.491Z,53.40
2017-06-19T14:39:54.649Z,53.30
2017-06-19T14:42:27.075Z,53.10
2017-06-19T14:44:59.844Z,53.00
2017-06-19T14:47:32.883Z,52.90
2017-06-19T14:50:06.063Z,52.40
2017-06-19T14:52:38.927Z,52.10
2017-06-19T14:55:11.855Z,51.50
2017-06-19T14:57:44.587Z,50.10
2017-06-19T15:00:17.487Z,48.90
2017-06-19T15:02:50.595Z,47.20
2017-06-19T15:05:23.523Z,45.50
2017-06-19T15:07:56.401Z,44.00
2017-06-19T15:10:27.475Z,42.00
2017-06-19T15:13:00.403Z,41.90
2017-06-19T15:15:30.552Z,41.60
2017-06-19T15:18:03.163Z,41.20
2017-06-19T15:20:36.261Z,41.10
2017-06-19T15:23:09.151Z,40.70
2017-06-19T15:25:41.871Z,40.30
2017-06-19T15:28:14.967Z,39.60
2017-06-19T15:30:48.234Z,38.60
2017-06-19T15:33:21.101Z,37.90
2017-06-19T15:35:54.167Z,37.40
2017-06-19T15:38:27.067Z,36.90
2017-06-19T15:41:00.107Z,36.60
2017-06-19T15:43:32.834Z,36.30
2017-06-19T15:46:05.770Z,36.00
2017-06-19T15:48:38.687Z,35.90
2017-06-19T15:51:12.039Z,35.80
2017-06-19T15:53:44.862Z,35.60
2017-06-19T15:56:17.719Z,35.40
2017-06-19T15:58:50.743Z,35.10
2017-06-19T16:01:23.752Z,34.90
2017-06-19T16:03:56.570Z,34.70
2017-06-19T16:06:29.667Z,34.50
2017-06-19T16:09:02.402Z,34.30
2017-06-19T16:11:34.719Z,34.10
2017-06-19T16:14:07.067Z,34.10
2017-06-19T16:16:39.995Z,34.00
2017-06-19T16:19:12.748Z,34.00
2017-06-19T16:21:45.819Z,34.00
2017-06-19T16:24:16.064Z,33.80
2017-06-19T16:26:49.167Z,33.80
2017-06-19T16:29:22.263Z,33.80
2017-06-19T16:31:55.181Z,33.60
2017-06-19T16:34:27.998Z,33.40
2017-06-19T16:37:01.239Z,33.20
2017-06-19T16:39:33.989Z,32.90
2017-06-19T16:42:07.077Z,32.60
2017-06-19T16:44:39.944Z,32.30
2017-06-19T16:47:13.943Z,32.00
2017-06-19T16:49:46.883Z,31.60
2017-06-19T16:52:20.019Z,31.20
2017-06-19T16:54:52.256Z,31.00
2017-06-19T16:57:24.976Z,30.70
2017-06-19T16:59:57.683Z,30.40
2017-06-19T17:02:30.715Z,30.20
2017-06-19T17:05:03.740Z,29.90
2017-06-19T17:07:36.903Z,29.80
2017-06-19T17:10:09.687Z,29.50
2017-06-19T17:12:42.608Z,29.40
2017-06-19T17:15:15.464Z,29.10
2017-06-19T17:17:48.375Z,28.90
2017-06-19T17:20:21.367Z,28.70
2017-06-19T17:22:54.000Z,28.60
2017-06-19T17:25:26.875Z,28.50
2017-06-19T17:28:00.027Z,28.30
2017-06-19T17:30:32.685Z,28.30
2017-06-19T17:33:05.682Z,28.10
2017-06-19T17:35:38.755Z,28.00
2017-06-19T17:38:11.743Z,27.80
2017-06-19T17:40:44.543Z,27.70
2017-06-19T17:43:17.529Z,27.60
2017-06-19T17:45:50.415Z,27.50
2017-06-19T17:48:23.426Z,27.40
2017-06-19T17:50:56.356Z,27.40
2017-06-19T17:53:29.391Z,27.20
2017-06-19T17:56:02.231Z,27.20
2017-06-19T17:58:34.972Z,27.10
2017-06-19T18:01:07.826Z,27.00
2017-06-19T18:03:40.613Z,26.90
2017-06-19T18:06:13.439Z,26.80
2017-06-19T18:08:46.407Z,26.70
2017-06-19T18:11:19.370Z,26.60
2017-06-19T18:13:52.111Z,26.60
2017-06-19T18:16:25.131Z,26.60
2017-06-19T18:18:58.099Z,26.50
2017-06-19T18:21:31.106Z,26.40
2017-06-19T18:24:05.914Z,26.30
2017-06-19T18:26:38.965Z,26.30
2017-06-19T18:29:11.860Z,26.20
2017-06-19T18:31:44.651Z,26.10
2017-06-19T18:34:17.573Z,26.00
2017-06-19T18:36:50.207Z,25.90
2017-06-19T18:39:23.132Z,25.90
2017-06-19T18:41:56.099Z,25.80
2017-06-19T18:44:29.420Z,25.70
2017-06-19T18:47:02.339Z,25.70
2017-06-19T18:49:35.129Z,25.60
2017-06-19T18:52:04.891Z,25.50
2017-06-19T18:54:37.458Z,25.40
2017-06-19T18:57:09.920Z,25.40
2017-06-19T18:59:42.930Z,25.30
2017-06-19T19:02:15.678Z,25.20
2017-06-19T19:04:48.854Z,25.20
2017-06-19T19:07:22.386Z,25.00
2017-06-19T19:09:55.381Z,24.80
2017-06-19T19:12:28.564Z,24.60
2017-06-19T19:15:02.168Z,24.50
2017-06-19T19:17:35.640Z,24.30
2017-06-19T19:20:09.543Z,24.20
2017-06-19T19:22:42.309Z,24.10
2017-06-19T19:25:15.465Z,23.90
2017-06-19T19:27:49.214Z,23.80
2017-06-19T19:30:22.507Z,23.70
2017-06-19T19:32:56.555Z,23.60
2017-06-19T19:35:30.349Z,23.60
2017-06-19T19:38:04.026Z,23.50
2017-06-19T19:40:37.640Z,23.40
2017-06-19T19:43:11.210Z,23.30
2017-06-19T19:45:44.994Z,23.30
2017-06-19T19:48:18.496Z,23.20
2017-06-19T19:50:52.387Z,23.10
2017-06-19T19:53:22.444Z,23.00
2017-06-19T19:55:55.821Z,23.00
2017-06-19T19:58:26.820Z,22.90
2017-06-19T20:01:00.463Z,22.80
2017-06-19T20:03:33.407Z,22.70
2017-06-19T20:06:04.173Z,22.70
2017-06-19T20:08:37.820Z,22.60
2017-06-19T20:11:12.230Z,22.50
2017-06-19T20:13:46.074Z,22.40
2017-06-19T20:16:20.150Z,22.30
2017-06-19T20:18:53.902Z,22.20
2017-06-19T20:21:27.280Z,22.20
2017-06-19T20:24:00.869Z,22.10
2017-06-19T20:26:33.736Z,22.00
2017-06-19T20:29:06.630Z,21.90
2017-06-19T20:31:39.582Z,21.90
2017-06-19T20:34:12.363Z,21.80
2017-06-19T20:36:45.038Z,21.70
2017-06-19T20:39:17.761Z,21.60
2017-06-19T20:41:50.543Z,21.60
2017-06-19T20:44:23.178Z,21.60
2017-06-19T20:46:56.199Z,21.50
2017-06-19T20:49:26.276Z,21.50
2017-06-19T20:51:59.220Z,21.40
2017-06-19T20:54:31.962Z,21.30
2017-06-19T20:57:04.879Z,21.30
2017-06-19T20:59:37.103Z,21.20
2017-06-19T21:02:09.840Z,21.20
2017-06-19T21:04:42.851Z,21.20
2017-06-19T21:07:15.535Z,21.10
2017-06-19T21:09:48.272Z,21.00
2017-06-19T21:12:20.959Z,20.90
2017-06-19T21:14:53.838Z,20.90
2017-06-19T21:17:26.759Z,20.80
2017-06-19T21:19:59.351Z,20.80
2017-06-19T21:22:32.072Z,20.70
2017-06-19T21:25:05.027Z,20.70
2017-06-19T21:27:37.984Z,20.60
2017-06-19T21:30:10.988Z,20.60
2017-06-19T21:32:44.022Z,20.60
2017-06-19T21:35:17.089Z,20.50
2017-06-19T21:37:49.564Z,20.50
2017-06-19T21:40:22.415Z,20.50
2017-06-19T21:42:55.325Z,20.50
2017-06-19T21:45:28.200Z,20.40
2017-06-19T21:48:01.156Z,20.40
2017-06-19T21:50:33.943Z,20.40
2017-06-19T21:53:07.098Z,20.40
2017-06-19T21:55:41.306Z,20.30
2017-06-19T21:58:14.243Z,20.30
2017-06-19T22:00:46.875Z,20.20
2017-06-19T22:03:20.084Z,20.20
2017-06-19T22:05:52.800Z,20.10
2017-06-19T22:08:25.031Z,20.10
2017-06-19T22:10:58.040Z,20.10
2017-06-19T22:13:30.949Z,20.00
2017-06-19T22:16:04.147Z,20.00
2017-06-19T22:18:37.427Z,20.00
2017-06-19T22:21:16.021Z,20.00
2017-06-19T22:23:48.876Z,19.90
2017-06-19T22:26:21.811Z,19.90
2017-06-19T22:28:52.040Z,19.80
2017-06-19T22:31:27.389Z,19.80
2017-06-19T22:34:00.413Z,19.80
2017-06-19T22:36:32.057Z,19.70
2017-06-19T22:39:02.886Z,19.70
2017-06-19T22:41:36.076Z,19.70
2017-06-19T22:44:08.888Z,19.60
2017-06-19T22:46:41.414Z,19.60
2017-06-19T22:49:13.269Z,19.60
2017-06-19T22:51:47.235Z,19.60
2017-06-19T22:54:20.227Z,19.50
2017-06-19T22:56:53.123Z,19.50
2017-06-19T22:59:25.995Z,19.40
2017-06-19T23:01:56.038Z,19.40
2017-06-19T23:04:28.766Z,19.40
2017-06-19T23:07:01.546Z,19.30
2017-06-19T23:09:34.407Z,19.30
2017-06-19T23:12:07.319Z,19.30
2017-06-19T23:14:40.415Z,19.20
2017-06-19T23:17:13.183Z,19.10
2017-06-19T23:19:46.188Z,19.10
2017-06-19T23:22:18.928Z,19.00
2017-06-19T23:24:51.754Z,19.00
2017-06-19T23:27:24.874Z,19.00
2017-06-19T23:29:57.631Z,19.00
2017-06-19T23:32:30.710Z,18.90
2017-06-19T23:35:03.479Z,18.80
2017-06-19T23:37:36.435Z,18.80
2017-06-19T23:40:09.519Z,18.80
2017-06-19T23:42:42.411Z,18.70
2017-06-19T23:45:12.735Z,18.70
2017-06-19T23:47:45.235Z,18.70
2017-06-19T23:50:18.165Z,18.70
2017-06-19T23:52:51.171Z,18.70
2017-06-19T23:55:23.991Z,18.60
2017-06-19T23:57:56.812Z,18.60
